sensor_id;sensor_type;location;lat;lon;timestamp;P1;durP1;ratioP1;P2;durP2;ratioP2
22673;SDS011;11504;43.334;21.918;2023-02-23T00:00:11;26.0;;;24.0;;
22673;SDS011;11504;43.334;21.918;2023-02-23T00:04:52;26.0;;;24.0;;
22673;SDS011;11504;43.334;21.918;2023-02-23T00:09:28;26.0;;;24.0;;
22673;SDS011;11504;43.334;21.918;2023-02-23T00:14:05;26.0;;;24.0;;
22673;SDS011;11504;43.334;21.918;2023-02-23T00:18:47;26.0;;;24.0;;
22673;SDS011;11504;43.334;21.918;2023-02-23T00:23:29;28.0;;;26.0;;
22673;SDS011;11504;43.334;21.918;2023-02-23T00:28:05;28.0;;;26.0;;
22673;SDS011;11504;43.334;21.918;2023-02-23T00:32:42;29.0;;;27.0;;
22673;SDS011;11504;43.334;21.918;2023-02-23T00:37:20;29.0;;;27.0;;
22673;SDS011;11504;43.334;21.918;2023-02-23T00:41:57;28.0;;;26.0;;
22673;SDS011;11504;43.334;21.918;2023-02-23T00:46:33;28.0;;;26.0;;
22673;SDS011;11504;43.334;21.918;2023-02-23T00:51:12;26.0;;;25.0;;
22673;SDS011;11504;43.334;21.918;2023-02-23T00:55:49;26.0;;;25.0;;
22673;SDS011;11504;43.334;21.918;2023-02-23T01:00:25;24.0;;;23.0;;
22673;SDS011;11504;43.334;21.918;2023-02-23T01:05:02;24.0;;;23.0;;
22673;SDS011;11504;43.334;21.918;2023-02-23T01:09:38;24.0;;;23.0;;
22673;SDS011;11504;43.334;21.918;2023-02-23T01:14:15;23.0;;;21.0;;
22673;SDS011;11504;43.334;21.918;2023-02-23T01:18:56;23.0;;;21.0;;
22673;SDS011;11504;43.334;21.918;2023-02-23T01:23:40;23.0;;;21.0;;
22673;SDS011;11504;43.334;21.918;2023-02-23T01:28:17;23.0;;;21.0;;
22673;SDS011;11504;43.334;21.918;2023-02-23T01:32:54;23.0;;;21.0;;
22673;SDS011;11504;43.334;21.918;2023-02-23T01:37:35;23.0;;;21.0;;
22673;SDS011;11504;43.334;21.918;2023-02-23T01:42:18;24.0;;;22.0;;
22673;SDS011;11504;43.334;21.918;2023-02-23T01:46:56;24.0;;;22.0;;
22673;SDS011;11504;43.334;21.918;2023-02-23T01:51:40;25.0;;;22.0;;
22673;SDS011;11504;43.334;21.918;2023-02-23T01:56:44;25.0;;;22.0;;
22673;SDS011;11504;43.334;21.918;2023-02-23T02:01:33;31.0;;;28.0;;
22673;SDS011;11504;43.334;21.918;2023-02-23T02:06:17;31.0;;;28.0;;
22673;SDS011;11504;43.334;21.918;2023-02-23T02:11:04;37.0;;;35.0;;
22673;SDS011;11504;43.334;21.918;2023-02-23T02:16:11;37.0;;;35.0;;
22673;SDS011;11504;43.334;21.918;2023-02-23T02:22:08;42.0;;;40.0;;
22673;SDS011;11504;43.334;21.918;2023-02-23T02:30:45;42.0;;;40.0;;
22673;SDS011;11504;43.334;21.918;2023-02-23T02:37:37;47.0;;;45.0;;
22673;SDS011;11504;43.334;21.918;2023-02-23T02:43:07;36.0;;;34.0;;
22673;SDS011;11504;43.334;21.918;2023-02-23T02:48:22;36.0;;;34.0;;
22673;SDS011;11504;43.334;21.918;2023-02-23T02:53:39;24.0;;;23.0;;
22673;SDS011;11504;43.334;21.918;2023-02-23T02:58:36;24.0;;;23.0;;
22673;SDS011;11504;43.334;21.918;2023-02-23T03:03:31;26.0;;;26.0;;
22673;SDS011;11504;43.334;21.918;2023-02-23T03:08:33;26.0;;;26.0;;
22673;SDS011;11504;43.334;21.918;2023-02-23T03:13:53;29.0;;;28.0;;
22673;SDS011;11504;43.334;21.918;2023-02-23T03:19:19;29.0;;;28.0;;
22673;SDS011;11504;43.334;21.918;2023-02-23T03:24:33;30.0;;;28.0;;
22673;SDS011;11504;43.334;21.918;2023-02-23T03:29:46;30.0;;;28.0;;
22673;SDS011;11504;43.334;21.918;2023-02-23T03:34:44;30.0;;;29.0;;
22673;SDS011;11504;43.334;21.918;2023-02-23T03:39:42;30.0;;;29.0;;
22673;SDS011;11504;43.334;21.918;2023-02-23T03:44:39;28.0;;;26.0;;
22673;SDS011;11504;43.334;21.918;2023-02-23T03:49:32;28.0;;;26.0;;
22673;SDS011;11504;43.334;21.918;2023-02-23T03:54:26;26.0;;;24.0;;
22673;SDS011;11504;43.334;21.918;2023-02-23T03:59:21;26.0;;;24.0;;
22673;SDS011;11504;43.334;21.918;2023-02-23T04:04:23;24.0;;;22.0;;
22673;SDS011;11504;43.334;21.918;2023-02-23T04:09:07;24.0;;;22.0;;
22673;SDS011;11504;43.334;21.918;2023-02-23T04:13:59;21.0;;;20.0;;
22673;SDS011;11504;43.334;21.918;2023-02-23T04:18:57;21.0;;;20.0;;
22673;SDS011;11504;43.334;21.918;2023-02-23T04:23:39;22.0;;;21.0;;
22673;SDS011;11504;43.334;21.918;2023-02-23T04:28:19;22.0;;;21.0;;
22673;SDS011;11504;43.334;21.918;2023-02-23T04:33:03;24.0;;;22.0;;
22673;SDS011;11504;43.334;21.918;2023-02-23T04:37:40;24.0;;;22.0;;
22673;SDS011;11504;43.334;21.918;2023-02-23T04:42:18;24.0;;;22.0;;
22673;SDS011;11504;43.334;21.918;2023-02-23T04:46:56;24.0;;;22.0;;
22673;SDS011;11504;43.334;21.918;2023-02-23T04:51:34;23.0;;;22.0;;
22673;SDS011;11504;43.334;21.918;2023-02-23T04:56:10;23.0;;;22.0;;
22673;SDS011;11504;43.334;21.918;2023-02-23T05:00:47;24.0;;;24.0;;
22673;SDS011;11504;43.334;21.918;2023-02-23T05:05:24;24.0;;;24.0;;
22673;SDS011;11504;43.334;21.918;2023-02-23T05:10:01;24.0;;;24.0;;
22673;SDS011;11504;43.334;21.918;2023-02-23T05:14:42;26.0;;;25.0;;
22673;SDS011;11504;43.334;21.918;2023-02-23T05:19:19;26.0;;;25.0;;
22673;SDS011;11504;43.334;21.918;2023-02-23T05:23:56;28.0;;;26.0;;
22673;SDS011;11504;43.334;21.918;2023-02-23T05:28:37;28.0;;;26.0;;
22673;SDS011;11504;43.334;21.918;2023-02-23T05:33:17;29.0;;;28.0;;
22673;SDS011;11504;43.334;21.918;2023-02-23T05:37:54;29.0;;;28.0;;
22673;SDS011;11504;43.334;21.918;2023-02-23T05:42:31;26.0;;;24.0;;
22673;SDS011;11504;43.334;21.918;2023-02-23T05:47:08;26.0;;;24.0;;
22673;SDS011;11504;43.334;21.918;2023-02-23T05:51:44;22.0;;;21.0;;
22673;SDS011;11504;43.334;21.918;2023-02-23T05:56:21;22.0;;;21.0;;
22673;SDS011;11504;43.334;21.918;2023-02-23T06:01:00;23.0;;;21.0;;
22673;SDS011;11504;43.334;21.918;2023-02-23T06:05:37;23.0;;;21.0;;
22673;SDS011;11504;43.334;21.918;2023-02-23T06:10:14;24.0;;;21.0;;
22673;SDS011;11504;43.334;21.918;2023-02-23T06:14:51;24.0;;;21.0;;
22673;SDS011;11504;43.334;21.918;2023-02-23T06:19:27;24.0;;;21.0;;
22673;SDS011;11504;43.334;21.918;2023-02-23T06:24:05;22.0;;;20.0;;
22673;SDS011;11504;43.334;21.918;2023-02-23T06:28:41;22.0;;;20.0;;
22673;SDS011;11504;43.334;21.918;2023-02-23T06:33:18;21.0;;;20.0;;
22673;SDS011;11504;43.334;21.918;2023-02-23T06:37:55;21.0;;;20.0;;
22673;SDS011;11504;43.334;21.918;2023-02-23T06:42:32;22.0;;;20.0;;
22673;SDS011;11504;43.334;21.918;2023-02-23T06:47:09;22.0;;;20.0;;
22673;SDS011;11504;43.334;21.918;2023-02-23T06:51:46;22.0;;;20.0;;
22673;SDS011;11504;43.334;21.918;2023-02-23T06:56:22;22.0;;;20.0;;
22673;SDS011;11504;43.334;21.918;2023-02-23T07:01:00;28.0;;;26.0;;
22673;SDS011;11504;43.334;21.918;2023-02-23T07:05:37;28.0;;;26.0;;
22673;SDS011;11504;43.334;21.918;2023-02-23T07:10:14;33.0;;;31.0;;
22673;SDS011;11504;43.334;21.918;2023-02-23T07:14:53;33.0;;;31.0;;
22673;SDS011;11504;43.334;21.918;2023-02-23T07:19:30;33.0;;;31.0;;
22673;SDS011;11504;43.334;21.918;2023-02-23T07:24:08;40.0;;;36.0;;
22673;SDS011;11504;43.334;21.918;2023-02-23T07:28:44;40.0;;;36.0;;
22673;SDS011;11504;43.334;21.918;2023-02-23T07:33:21;46.0;;;41.0;;
22673;SDS011;11504;43.334;21.918;2023-02-23T07:37:58;46.0;;;41.0;;
22673;SDS011;11504;43.334;21.918;2023-02-23T07:42:35;46.0;;;42.0;;
22673;SDS011;11504;43.334;21.918;2023-02-23T07:47:12;46.0;;;42.0;;
22673;SDS011;11504;43.334;21.918;2023-02-23T07:51:48;45.0;;;43.0;;
22673;SDS011;11504;43.334;21.918;2023-02-23T07:56:25;45.0;;;43.0;;
22673;SDS011;11504;43.334;21.918;2023-02-23T08:01:03;45.0;;;43.0;;
22673;SDS011;11504;43.334;21.918;2023-02-23T08:05:42;45.0;;;43.0;;
22673;SDS011;11504;43.334;21.918;2023-02-23T08:10:19;45.0;;;43.0;;
22673;SDS011;11504;43.334;21.918;2023-02-23T08:14:56;45.0;;;43.0;;
22673;SDS011;11504;43.334;21.918;2023-02-23T08:19:33;45.0;;;43.0;;
22673;SDS011;11504;43.334;21.918;2023-02-23T08:24:10;44.0;;;42.0;;
22673;SDS011;11504;43.334;21.918;2023-02-23T08:28:47;44.0;;;42.0;;
22673;SDS011;11504;43.334;21.918;2023-02-23T08:33:23;42.0;;;40.0;;
22673;SDS011;11504;43.334;21.918;2023-02-23T08:38:00;42.0;;;40.0;;
22673;SDS011;11504;43.334;21.918;2023-02-23T08:42:37;48.0;;;45.0;;
22673;SDS011;11504;43.334;21.918;2023-02-23T08:47:14;48.0;;;45.0;;
22673;SDS011;11504;43.334;21.918;2023-02-23T08:51:51;53.0;;;50.0;;
22673;SDS011;11504;43.334;21.918;2023-02-23T08:56:27;53.0;;;50.0;;
22673;SDS011;11504;43.334;21.918;2023-02-23T09:01:04;52.0;;;49.0;;
22673;SDS011;11504;43.334;21.918;2023-02-23T09:05:40;52.0;;;49.0;;
22673;SDS011;11504;43.334;21.918;2023-02-23T09:10:19;50.0;;;48.0;;
22673;SDS011;11504;43.334;21.918;2023-02-23T09:14:57;50.0;;;48.0;;
22673;SDS011;11504;43.334;21.918;2023-02-23T09:19:33;50.0;;;48.0;;
22673;SDS011;11504;43.334;21.918;2023-02-23T09:24:10;48.0;;;46.0;;
22673;SDS011;11504;43.334;21.918;2023-02-23T09:28:47;48.0;;;46.0;;
22673;SDS011;11504;43.334;21.918;2023-02-23T09:33:25;46.0;;;44.0;;
22673;SDS011;11504;43.334;21.918;2023-02-23T09:38:05;46.0;;;44.0;;
22673;SDS011;11504;43.334;21.918;2023-02-23T09:42:56;45.0;;;43.0;;
22673;SDS011;11504;43.334;21.918;2023-02-23T09:48:11;45.0;;;43.0;;
22673;SDS011;11504;43.334;21.918;2023-02-23T09:53:06;44.0;;;42.0;;
22673;SDS011;11504;43.334;21.918;2023-02-23T09:58:23;44.0;;;42.0;;
22673;SDS011;11504;43.334;21.918;2023-02-23T10:03:17;44.0;;;41.0;;
22673;SDS011;11504;43.334;21.918;2023-02-23T10:08:40;44.0;;;41.0;;
22673;SDS011;11504;43.334;21.918;2023-02-23T10:14:11;44.0;;;40.0;;
22673;SDS011;11504;43.334;21.918;2023-02-23T10:19:50;44.0;;;40.0;;
22673;SDS011;11504;43.334;21.918;2023-02-23T10:25:06;44.0;;;40.0;;
22673;SDS011;11504;43.334;21.918;2023-02-23T10:29:56;44.0;;;40.0;;
22673;SDS011;11504;43.334;21.918;2023-02-23T10:43:53;35.0;;;33.0;;
22673;SDS011;11504;43.334;21.918;2023-02-23T10:48:42;35.0;;;33.0;;
22673;SDS011;11504;43.334;21.918;2023-02-23T10:53:32;35.0;;;33.0;;
22673;SDS011;11504;43.334;21.918;2023-02-23T10:58:19;35.0;;;33.0;;
22673;SDS011;11504;43.334;21.918;2023-02-23T11:03:01;34.0;;;32.0;;
22673;SDS011;11504;43.334;21.918;2023-02-23T11:07:38;34.0;;;32.0;;
22673;SDS011;11504;43.334;21.918;2023-02-23T11:12:28;33.0;;;31.0;;
22673;SDS011;11504;43.334;21.918;2023-02-23T11:17:36;33.0;;;31.0;;
22673;SDS011;11504;43.334;21.918;2023-02-23T11:22:20;33.0;;;31.0;;
22673;SDS011;11504;43.334;21.918;2023-02-23T11:27:17;33.0;;;31.0;;
22673;SDS011;11504;43.334;21.918;2023-02-23T11:41:23;28.0;;;27.0;;
22673;SDS011;11504;43.334;21.918;2023-02-23T11:46:02;28.0;;;27.0;;
22673;SDS011;11504;43.334;21.918;2023-02-23T11:50:49;28.0;;;27.0;;
22673;SDS011;11504;43.334;21.918;2023-02-23T11:55:36;28.0;;;27.0;;
22673;SDS011;11504;43.334;21.918;2023-02-23T12:00:27;21.0;;;20.0;;
22673;SDS011;11504;43.334;21.918;2023-02-23T12:05:21;21.0;;;20.0;;
22673;SDS011;11504;43.334;21.918;2023-02-23T12:10:27;14.0;;;13.0;;
22673;SDS011;11504;43.334;21.918;2023-02-23T12:15:44;14.0;;;13.0;;
22673;SDS011;11504;43.334;21.918;2023-02-23T12:20:48;14.0;;;12.0;;
22673;SDS011;11504;43.334;21.918;2023-02-23T12:25:57;14.0;;;12.0;;
22673;SDS011;11504;43.334;21.918;2023-02-23T12:31:03;13.0;;;12.0;;
22673;SDS011;11504;43.334;21.918;2023-02-23T12:36:31;13.0;;;12.0;;
22673;SDS011;11504;43.334;21.918;2023-02-23T12:41:37;14.0;;;12.0;;
22673;SDS011;11504;43.334;21.918;2023-02-23T12:46:38;14.0;;;12.0;;
22673;SDS011;11504;43.334;21.918;2023-02-23T12:51:38;14.0;;;13.0;;
22673;SDS011;11504;43.334;21.918;2023-02-23T12:56:54;14.0;;;13.0;;
22673;SDS011;11504;43.334;21.918;2023-02-23T13:01:52;14.0;;;14.0;;
22673;SDS011;11504;43.334;21.918;2023-02-23T13:06:57;14.0;;;14.0;;
22673;SDS011;11504;43.334;21.918;2023-02-23T13:12:19;14.0;;;14.0;;
22673;SDS011;11504;43.334;21.918;2023-02-23T13:17:36;14.0;;;14.0;;
22673;SDS011;11504;43.334;21.918;2023-02-23T13:22:41;14.0;;;13.0;;
22673;SDS011;11504;43.334;21.918;2023-02-23T13:27:48;14.0;;;13.0;;
22673;SDS011;11504;43.334;21.918;2023-02-23T13:32:33;13.0;;;12.0;;
22673;SDS011;11504;43.334;21.918;2023-02-23T13:37:22;13.0;;;12.0;;
22673;SDS011;11504;43.334;21.918;2023-02-23T13:42:38;13.0;;;12.0;;
22673;SDS011;11504;43.334;21.918;2023-02-23T13:47:55;13.0;;;12.0;;
22673;SDS011;11504;43.334;21.918;2023-02-23T13:52:55;13.0;;;12.0;;
22673;SDS011;11504;43.334;21.918;2023-02-23T13:57:44;13.0;;;12.0;;
22673;SDS011;11504;43.334;21.918;2023-02-23T14:02:39;13.0;;;12.0;;
22673;SDS011;11504;43.334;21.918;2023-02-23T14:07:29;13.0;;;12.0;;
22673;SDS011;11504;43.334;21.918;2023-02-23T14:12:29;13.0;;;13.0;;
22673;SDS011;11504;43.334;21.918;2023-02-23T14:17:56;13.0;;;13.0;;
22673;SDS011;11504;43.334;21.918;2023-02-23T14:22:35;13.0;;;12.0;;
22673;SDS011;11504;43.334;21.918;2023-02-23T14:27:32;13.0;;;12.0;;
22673;SDS011;11504;43.334;21.918;2023-02-23T14:32:33;13.0;;;12.0;;
22673;SDS011;11504;43.334;21.918;2023-02-23T14:37:28;13.0;;;12.0;;
22673;SDS011;11504;43.334;21.918;2023-02-23T14:42:27;14.0;;;13.0;;
22673;SDS011;11504;43.334;21.918;2023-02-23T14:47:16;14.0;;;13.0;;
22673;SDS011;11504;43.334;21.918;2023-02-23T14:52:18;15.0;;;14.0;;
22673;SDS011;11504;43.334;21.918;2023-02-23T14:57:20;15.0;;;14.0;;
22673;SDS011;11504;43.334;21.918;2023-02-23T15:02:15;16.0;;;16.0;;
22673;SDS011;11504;43.334;21.918;2023-02-23T15:07:03;16.0;;;16.0;;
22673;SDS011;11504;43.334;21.918;2023-02-23T15:12:11;18.0;;;17.0;;
22673;SDS011;11504;43.334;21.918;2023-02-23T15:17:02;18.0;;;17.0;;
22673;SDS011;11504;43.334;21.918;2023-02-23T15:21:39;18.0;;;17.0;;
22673;SDS011;11504;43.334;21.918;2023-02-23T15:26:26;18.0;;;17.0;;
22673;SDS011;11504;43.334;21.918;2023-02-23T15:31:10;18.0;;;17.0;;
22673;SDS011;11504;43.334;21.918;2023-02-23T15:36:06;18.0;;;17.0;;
22673;SDS011;11504;43.334;21.918;2023-02-23T15:40:55;18.0;;;16.0;;
22673;SDS011;11504;43.334;21.918;2023-02-23T15:45:48;18.0;;;16.0;;
22673;SDS011;11504;43.334;21.918;2023-02-23T15:50:40;17.0;;;16.0;;
22673;SDS011;11504;43.334;21.918;2023-02-23T15:55:34;17.0;;;16.0;;
22673;SDS011;11504;43.334;21.918;2023-02-23T16:00:29;17.0;;;16.0;;
22673;SDS011;11504;43.334;21.918;2023-02-23T16:05:23;17.0;;;16.0;;
22673;SDS011;11504;43.334;21.918;2023-02-23T16:10:23;17.0;;;16.0;;
22673;SDS011;11504;43.334;21.918;2023-02-23T16:15:26;17.0;;;17.0;;
22673;SDS011;11504;43.334;21.918;2023-02-23T16:20:32;17.0;;;17.0;;
22673;SDS011;11504;43.334;21.918;2023-02-23T16:25:19;18.0;;;17.0;;
22673;SDS011;11504;43.334;21.918;2023-02-23T16:30:22;18.0;;;17.0;;
22673;SDS011;11504;43.334;21.918;2023-02-23T16:35:19;18.0;;;17.0;;
22673;SDS011;11504;43.334;21.918;2023-02-23T16:39:56;18.0;;;17.0;;
22673;SDS011;11504;43.334;21.918;2023-02-23T16:44:32;18.0;;;17.0;;
22673;SDS011;11504;43.334;21.918;2023-02-23T16:49:11;18.0;;;17.0;;
22673;SDS011;11504;43.334;21.918;2023-02-23T16:53:48;19.0;;;17.0;;
22673;SDS011;11504;43.334;21.918;2023-02-23T16:58:27;19.0;;;17.0;;
22673;SDS011;11504;43.334;21.918;2023-02-23T17:03:04;18.0;;;17.0;;
22673;SDS011;11504;43.334;21.918;2023-02-23T17:07:40;18.0;;;17.0;;
22673;SDS011;11504;43.334;21.918;2023-02-23T17:12:17;18.0;;;17.0;;
22673;SDS011;11504;43.334;21.918;2023-02-23T17:16:53;18.0;;;17.0;;
22673;SDS011;11504;43.334;21.918;2023-02-23T17:21:30;18.0;;;17.0;;
22673;SDS011;11504;43.334;21.918;2023-02-23T17:26:10;18.0;;;17.0;;
22673;SDS011;11504;43.334;21.918;2023-02-23T17:30:47;18.0;;;17.0;;
22673;SDS011;11504;43.334;21.918;2023-02-23T17:35:25;18.0;;;17.0;;
22673;SDS011;11504;43.334;21.918;2023-02-23T17:40:08;18.0;;;17.0;;
22673;SDS011;11504;43.334;21.918;2023-02-23T17:45:00;18.0;;;18.0;;
22673;SDS011;11504;43.334;21.918;2023-02-23T17:49:45;18.0;;;18.0;;
22673;SDS011;11504;43.334;21.918;2023-02-23T17:54:22;19.0;;;18.0;;
22673;SDS011;11504;43.334;21.918;2023-02-23T17:58:59;19.0;;;18.0;;
22673;SDS011;11504;43.334;21.918;2023-02-23T18:03:36;20.0;;;18.0;;
22673;SDS011;11504;43.334;21.918;2023-02-23T18:08:14;20.0;;;18.0;;
22673;SDS011;11504;43.334;21.918;2023-02-23T18:12:51;21.0;;;19.0;;
22673;SDS011;11504;43.334;21.918;2023-02-23T18:17:29;21.0;;;19.0;;
22673;SDS011;11504;43.334;21.918;2023-02-23T18:22:05;20.0;;;18.0;;
22673;SDS011;11504;43.334;21.918;2023-02-23T18:26:42;20.0;;;18.0;;
22673;SDS011;11504;43.334;21.918;2023-02-23T18:31:22;19.0;;;18.0;;
22673;SDS011;11504;43.334;21.918;2023-02-23T18:36:02;19.0;;;18.0;;
22673;SDS011;11504;43.334;21.918;2023-02-23T18:40:55;20.0;;;19.0;;
22673;SDS011;11504;43.334;21.918;2023-02-23T18:45:32;20.0;;;19.0;;
22673;SDS011;11504;43.334;21.918;2023-02-23T18:50:11;20.0;;;19.0;;
22673;SDS011;11504;43.334;21.918;2023-02-23T18:54:48;22.0;;;20.0;;
22673;SDS011;11504;43.334;21.918;2023-02-23T18:59:25;22.0;;;20.0;;
22673;SDS011;11504;43.334;21.918;2023-02-23T19:04:05;23.0;;;20.0;;
22673;SDS011;11504;43.334;21.918;2023-02-23T19:08:47;23.0;;;20.0;;
22673;SDS011;11504;43.334;21.918;2023-02-23T19:13:31;24.0;;;21.0;;
22673;SDS011;11504;43.334;21.918;2023-02-23T19:18:08;24.0;;;21.0;;
22673;SDS011;11504;43.334;21.918;2023-02-23T19:22:44;22.0;;;19.0;;
22673;SDS011;11504;43.334;21.918;2023-02-23T19:27:21;22.0;;;19.0;;
22673;SDS011;11504;43.334;21.918;2023-02-23T19:31:57;20.0;;;17.0;;
22673;SDS011;11504;43.334;21.918;2023-02-23T19:36:33;20.0;;;17.0;;
22673;SDS011;11504;43.334;21.918;2023-02-23T19:41:13;18.0;;;16.0;;
22673;SDS011;11504;43.334;21.918;2023-02-23T19:45:55;18.0;;;16.0;;
22673;SDS011;11504;43.334;21.918;2023-02-23T19:50:38;18.0;;;16.0;;
22673;SDS011;11504;43.334;21.918;2023-02-23T19:55:15;16.0;;;15.0;;
22673;SDS011;11504;43.334;21.918;2023-02-23T19:59:51;16.0;;;15.0;;
22673;SDS011;11504;43.334;21.918;2023-02-23T20:04:28;16.0;;;16.0;;
22673;SDS011;11504;43.334;21.918;2023-02-23T20:09:04;16.0;;;16.0;;
22673;SDS011;11504;43.334;21.918;2023-02-23T20:13:41;17.0;;;16.0;;
22673;SDS011;11504;43.334;21.918;2023-02-23T20:18:18;17.0;;;16.0;;
22673;SDS011;11504;43.334;21.918;2023-02-23T20:22:55;18.0;;;16.0;;
22673;SDS011;11504;43.334;21.918;2023-02-23T20:27:34;18.0;;;16.0;;
22673;SDS011;11504;43.334;21.918;2023-02-23T20:32:11;18.0;;;17.0;;
22673;SDS011;11504;43.334;21.918;2023-02-23T20:36:48;18.0;;;17.0;;
22673;SDS011;11504;43.334;21.918;2023-02-23T20:41:25;17.0;;;16.0;;
22673;SDS011;11504;43.334;21.918;2023-02-23T20:46:04;17.0;;;16.0;;
22673;SDS011;11504;43.334;21.918;2023-02-23T20:50:42;17.0;;;16.0;;
22673;SDS011;11504;43.334;21.918;2023-02-23T20:55:19;16.0;;;15.0;;
22673;SDS011;11504;43.334;21.918;2023-02-23T20:59:56;16.0;;;15.0;;
22673;SDS011;11504;43.334;21.918;2023-02-23T21:04:34;16.0;;;15.0;;
22673;SDS011;11504;43.334;21.918;2023-02-23T21:09:10;16.0;;;15.0;;
22673;SDS011;11504;43.334;21.918;2023-02-23T21:13:47;16.0;;;15.0;;
22673;SDS011;11504;43.334;21.918;2023-02-23T21:18:25;16.0;;;15.0;;
22673;SDS011;11504;43.334;21.918;2023-02-23T21:23:01;16.0;;;16.0;;
22673;SDS011;11504;43.334;21.918;2023-02-23T21:27:39;16.0;;;16.0;;
22673;SDS011;11504;43.334;21.918;2023-02-23T21:32:16;17.0;;;16.0;;
22673;SDS011;11504;43.334;21.918;2023-02-23T21:36:52;17.0;;;16.0;;
22673;SDS011;11504;43.334;21.918;2023-02-23T21:41:29;17.0;;;16.0;;
22673;SDS011;11504;43.334;21.918;2023-02-23T21:46:12;17.0;;;16.0;;
22673;SDS011;11504;43.334;21.918;2023-02-23T21:50:51;17.0;;;16.0;;
22673;SDS011;11504;43.334;21.918;2023-02-23T21:55:28;17.0;;;16.0;;
22673;SDS011;11504;43.334;21.918;2023-02-23T22:00:08;17.0;;;16.0;;
22673;SDS011;11504;43.334;21.918;2023-02-23T22:04:50;16.0;;;15.0;;
22673;SDS011;11504;43.334;21.918;2023-02-23T22:09:26;16.0;;;15.0;;
22673;SDS011;11504;43.334;21.918;2023-02-23T22:14:04;15.0;;;14.0;;
22673;SDS011;11504;43.334;21.918;2023-02-23T22:18:41;15.0;;;14.0;;
22673;SDS011;11504;43.334;21.918;2023-02-23T22:23:18;16.0;;;16.0;;
22673;SDS011;11504;43.334;21.918;2023-02-23T22:27:54;16.0;;;16.0;;
22673;SDS011;11504;43.334;21.918;2023-02-23T22:32:31;18.0;;;17.0;;
22673;SDS011;11504;43.334;21.918;2023-02-23T22:37:07;18.0;;;17.0;;
22673;SDS011;11504;43.334;21.918;2023-02-23T22:41:44;20.0;;;18.0;;
22673;SDS011;11504;43.334;21.918;2023-02-23T22:46:23;20.0;;;18.0;;
22673;SDS011;11504;43.334;21.918;2023-02-23T22:51:01;21.0;;;20.0;;
22673;SDS011;11504;43.334;21.918;2023-02-23T22:55:45;21.0;;;20.0;;
22673;SDS011;11504;43.334;21.918;2023-02-23T23:00:27;21.0;;;20.0;;
22673;SDS011;11504;43.334;21.918;2023-02-23T23:05:05;21.0;;;20.0;;
22673;SDS011;11504;43.334;21.918;2023-02-23T23:09:45;21.0;;;20.0;;
22673;SDS011;11504;43.334;21.918;2023-02-23T23:14:23;21.0;;;19.0;;
22673;SDS011;11504;43.334;21.918;2023-02-23T23:19:02;21.0;;;19.0;;
22673;SDS011;11504;43.334;21.918;2023-02-23T23:23:44;20.0;;;18.0;;
22673;SDS011;11504;43.334;21.918;2023-02-23T23:28:25;20.0;;;18.0;;
22673;SDS011;11504;43.334;21.918;2023-02-23T23:33:01;19.0;;;17.0;;
22673;SDS011;11504;43.334;21.918;2023-02-23T23:37:38;19.0;;;17.0;;
22673;SDS011;11504;43.334;21.918;2023-02-23T23:42:15;18.0;;;16.0;;
22673;SDS011;11504;43.334;21.918;2023-02-23T23:46:51;18.0;;;16.0;;
22673;SDS011;11504;43.334;21.918;2023-02-23T23:51:30;16.0;;;15.0;;
22673;SDS011;11504;43.334;21.918;2023-02-23T23:56:12;16.0;;;15.0;;
